首页
METAR-TAF:

METAR-TAF

机场 :

Newquay Cornwall, 英格兰

纬度: 50-26N, 经度: 005-00W, 海拔: 119米

当前天气观测

该预报发布于44分钟前的08:20 UTC
风速19节,风向东转东南
温度 22°C
湿度 60%
气压 1023 hPa
能见度10公里或以上
1500米以下无云,无积雨云

METAR: EGHQ 270820Z 11019KT CAVOK 22/14 Q1023

时间: 10:04 (09:04 UTC)

预报

该预报发布于1小时和3分钟前的08:01 UTC
预报有效从27日的 09点(UTC)到 27日的 18点(UTC)
风速22节,风向东转东南
能见度10公里或以上
1500米以下无云,无积雨云
几率 40% :
短暂存在
从 27日的 09点(UTC)到 27日的 15点(UTC)
风速25节,风向东转东南,有时为35节阵风
短暂存在
从 27日的 15点(UTC)到 27日的 18点(UTC)
风速28节,风向东转东南,有时为40节阵风

TAF: EGHQ 270801Z 2709/2718 11022KT CAVOK PROB40 TEMPO 2709/2715 11025G35KT TEMPO 2715/2718 11028G40KT

超过4000个机场的气象观测和天气预报(METAR&TAF报告)。

可查询的气象台以黄色和红色小点在地图上表示。

将鼠标移到小点上方,可查看气象台名称。

然后点击查看天气观测和预报。

如需切换地图:点击带黑十字的绿色按钮放大地图;点击带横线的绿色按钮缩小地图;或者点击绿色箭头查看邻近地区的地图。


METAR-TAF: